Terminal Aerodrome Forecast
Issued by NWS

Home | Current Version | Previous Version | Text Only | Print | Product List | Glossary On
Versions: 1 2 3 4 5 6 7 8 9 10 11 12 13
265
FTUS42 KTAE 290520
TAFDHN
TAF
KDHN 290520Z 2906/3006 18004KT P6SM SCT040
     FM290800 00000KT 2SM BR OVC004
     FM291300 14009KT P6SM BKN015
     FM291600 17013G18KT P6SM BKN050=

USA.gov is the U.S. government's official web portal to all federal, state and local government web resources and services.